sensor_id;sensor_type;location;lat;lon;timestamp;P1;durP1;ratioP1;P2;durP2;ratioP2
30553;SDS011;17335;50.720;7.452;2023-03-23T00:00:08;3.53;;;1.50;;
30553;SDS011;17335;50.720;7.452;2023-03-23T00:02:34;2.35;;;1.27;;
30553;SDS011;17335;50.720;7.452;2023-03-23T00:05:02;4.00;;;1.40;;
30553;SDS011;17335;50.720;7.452;2023-03-23T00:07:29;3.25;;;1.40;;
30553;SDS011;17335;50.720;7.452;2023-03-23T00:09:55;3.90;;;1.90;;
30553;SDS011;17335;50.720;7.452;2023-03-23T00:12:25;5.28;;;1.50;;
30553;SDS011;17335;50.720;7.452;2023-03-23T00:15:02;2.95;;;1.20;;
30553;SDS011;17335;50.720;7.452;2023-03-23T00:17:29;3.13;;;1.30;;
30553;SDS011;17335;50.720;7.452;2023-03-23T00:19:58;4.78;;;1.40;;
30553;SDS011;17335;50.720;7.452;2023-03-23T00:22:26;2.55;;;1.40;;
30553;SDS011;17335;50.720;7.452;2023-03-23T00:24:53;3.50;;;1.77;;
30553;SDS011;17335;50.720;7.452;2023-03-23T00:27:19;4.30;;;1.52;;
30553;SDS011;17335;50.720;7.452;2023-03-23T00:29:50;2.88;;;1.48;;
30553;SDS011;17335;50.720;7.452;2023-03-23T00:32:20;2.90;;;1.33;;
30553;SDS011;17335;50.720;7.452;2023-03-23T00:34:52;3.63;;;1.30;;
30553;SDS011;17335;50.720;7.452;2023-03-23T00:37:24;2.63;;;1.40;;
30553;SDS011;17335;50.720;7.452;2023-03-23T00:39:50;4.30;;;1.48;;
30553;SDS011;17335;50.720;7.452;2023-03-23T00:42:16;5.88;;;1.40;;
30553;SDS011;17335;50.720;7.452;2023-03-23T00:44:43;2.80;;;1.50;;
30553;SDS011;17335;50.720;7.452;2023-03-23T00:47:09;1.90;;;1.13;;
30553;SDS011;17335;50.720;7.452;2023-03-23T00:49:36;2.67;;;1.10;;
30553;SDS011;17335;50.720;7.452;2023-03-23T00:52:03;2.63;;;1.10;;
30553;SDS011;17335;50.720;7.452;2023-03-23T00:54:31;2.80;;;1.30;;
30553;SDS011;17335;50.720;7.452;2023-03-23T00:56:59;2.65;;;1.33;;
30553;SDS011;17335;50.720;7.452;2023-03-23T00:59:24;3.10;;;1.40;;
30553;SDS011;17335;50.720;7.452;2023-03-23T01:01:51;5.38;;;1.30;;
30553;SDS011;17335;50.720;7.452;2023-03-23T01:04:16;2.45;;;1.15;;
30553;SDS011;17335;50.720;7.452;2023-03-23T01:06:42;2.25;;;1.10;;
30553;SDS011;17335;50.720;7.452;2023-03-23T01:09:10;2.25;;;1.15;;
30553;SDS011;17335;50.720;7.452;2023-03-23T01:11:41;4.28;;;1.60;;
30553;SDS011;17335;50.720;7.452;2023-03-23T01:14:07;1.75;;;1.20;;
30553;SDS011;17335;50.720;7.452;2023-03-23T01:16:33;2.47;;;1.25;;
30553;SDS011;17335;50.720;7.452;2023-03-23T01:18:58;2.15;;;1.10;;
30553;SDS011;17335;50.720;7.452;2023-03-23T01:21:24;3.50;;;1.33;;
30553;SDS011;17335;50.720;7.452;2023-03-23T01:23:50;3.72;;;1.20;;
30553;SDS011;17335;50.720;7.452;2023-03-23T01:26:17;2.05;;;1.17;;
30553;SDS011;17335;50.720;7.452;2023-03-23T01:28:45;3.55;;;1.23;;
30553;SDS011;17335;50.720;7.452;2023-03-23T01:31:12;3.03;;;1.10;;
30553;SDS011;17335;50.720;7.452;2023-03-23T01:33:40;2.40;;;1.08;;
30553;SDS011;17335;50.720;7.452;2023-03-23T01:36:11;3.15;;;1.25;;
30553;SDS011;17335;50.720;7.452;2023-03-23T01:38:41;2.75;;;1.35;;
30553;SDS011;17335;50.720;7.452;2023-03-23T01:41:08;4.03;;;1.55;;
30553;SDS011;17335;50.720;7.452;2023-03-23T01:43:35;4.55;;;1.50;;
30553;SDS011;17335;50.720;7.452;2023-03-23T01:46:01;2.72;;;1.33;;
30553;SDS011;17335;50.720;7.452;2023-03-23T01:48:31;3.30;;;1.70;;
30553;SDS011;17335;50.720;7.452;2023-03-23T01:51:04;3.53;;;1.20;;
30553;SDS011;17335;50.720;7.452;2023-03-23T01:53:38;3.63;;;1.35;;
30553;SDS011;17335;50.720;7.452;2023-03-23T01:56:07;2.15;;;1.15;;
30553;SDS011;17335;50.720;7.452;2023-03-23T01:58:37;3.28;;;1.58;;
30553;SDS011;17335;50.720;7.452;2023-03-23T02:01:06;2.10;;;1.25;;
30553;SDS011;17335;50.720;7.452;2023-03-23T02:03:37;2.95;;;1.40;;
30553;SDS011;17335;50.720;7.452;2023-03-23T02:06:07;3.15;;;1.50;;
30553;SDS011;17335;50.720;7.452;2023-03-23T02:08:32;2.60;;;1.30;;
30553;SDS011;17335;50.720;7.452;2023-03-23T02:10:59;4.32;;;1.55;;
30553;SDS011;17335;50.720;7.452;2023-03-23T02:13:26;3.05;;;1.52;;
30553;SDS011;17335;50.720;7.452;2023-03-23T02:15:55;6.07;;;1.40;;
30553;SDS011;17335;50.720;7.452;2023-03-23T02:22:13;3.45;;;1.50;;
30553;SDS011;17335;50.720;7.452;2023-03-23T02:24:31;3.17;;;1.50;;
30553;SDS011;17335;50.720;7.452;2023-03-23T02:27:08;2.58;;;1.50;;
30553;SDS011;17335;50.720;7.452;2023-03-23T02:32:51;2.95;;;1.30;;
30553;SDS011;17335;50.720;7.452;2023-03-23T02:35:23;5.03;;;1.45;;
30553;SDS011;17335;50.720;7.452;2023-03-23T02:38:18;7.82;;;1.50;;
30553;SDS011;17335;50.720;7.452;2023-03-23T02:40:52;3.47;;;1.40;;
30553;SDS011;17335;50.720;7.452;2023-03-23T02:43:20;2.80;;;1.48;;
30553;SDS011;17335;50.720;7.452;2023-03-23T02:45:49;7.60;;;1.85;;
30553;SDS011;17335;50.720;7.452;2023-03-23T02:48:17;2.53;;;1.23;;
30553;SDS011;17335;50.720;7.452;2023-03-23T02:50:46;3.00;;;1.30;;
30553;SDS011;17335;50.720;7.452;2023-03-23T02:53:15;4.38;;;1.48;;
30553;SDS011;17335;50.720;7.452;2023-03-23T02:55:49;4.20;;;1.55;;
30553;SDS011;17335;50.720;7.452;2023-03-23T02:58:17;2.97;;;1.50;;
30553;SDS011;17335;50.720;7.452;2023-03-23T03:00:44;4.07;;;1.45;;
30553;SDS011;17335;50.720;7.452;2023-03-23T03:03:16;3.60;;;1.35;;
30553;SDS011;17335;50.720;7.452;2023-03-23T03:08:59;4.00;;;1.40;;
30553;SDS011;17335;50.720;7.452;2023-03-23T03:11:31;2.95;;;1.45;;
30553;SDS011;17335;50.720;7.452;2023-03-23T03:14:02;3.03;;;1.40;;
30553;SDS011;17335;50.720;7.452;2023-03-23T03:16:38;3.88;;;1.70;;
30553;SDS011;17335;50.720;7.452;2023-03-23T03:21:50;5.75;;;1.45;;
30553;SDS011;17335;50.720;7.452;2023-03-23T03:24:18;2.63;;;1.20;;
30553;SDS011;17335;50.720;7.452;2023-03-23T03:26:46;2.67;;;1.50;;
30553;SDS011;17335;50.720;7.452;2023-03-23T03:29:16;2.55;;;1.30;;
30553;SDS011;17335;50.720;7.452;2023-03-23T03:31:49;5.25;;;1.40;;
30553;SDS011;17335;50.720;7.452;2023-03-23T03:34:20;3.08;;;1.33;;
30553;SDS011;17335;50.720;7.452;2023-03-23T03:36:47;3.70;;;1.33;;
30553;SDS011;17335;50.720;7.452;2023-03-23T03:39:15;2.58;;;1.45;;
30553;SDS011;17335;50.720;7.452;2023-03-23T03:41:42;3.35;;;1.38;;
30553;SDS011;17335;50.720;7.452;2023-03-23T03:44:08;4.45;;;1.30;;
30553;SDS011;17335;50.720;7.452;2023-03-23T03:46:34;2.53;;;1.40;;
30553;SDS011;17335;50.720;7.452;2023-03-23T03:49:01;4.80;;;1.50;;
30553;SDS011;17335;50.720;7.452;2023-03-23T03:51:29;3.10;;;1.50;;
30553;SDS011;17335;50.720;7.452;2023-03-23T03:53:55;6.45;;;1.50;;
30553;SDS011;17335;50.720;7.452;2023-03-23T03:56:21;3.42;;;1.30;;
30553;SDS011;17335;50.720;7.452;2023-03-23T03:58:48;4.38;;;1.40;;
30553;SDS011;17335;50.720;7.452;2023-03-23T04:01:15;3.85;;;1.40;;
30553;SDS011;17335;50.720;7.452;2023-03-23T04:03:43;2.50;;;1.40;;
30553;SDS011;17335;50.720;7.452;2023-03-23T04:06:09;3.00;;;1.27;;
30553;SDS011;17335;50.720;7.452;2023-03-23T04:08:35;2.65;;;1.38;;
30553;SDS011;17335;50.720;7.452;2023-03-23T04:11:03;6.82;;;1.55;;
30553;SDS011;17335;50.720;7.452;2023-03-23T04:13:29;2.22;;;1.33;;
30553;SDS011;17335;50.720;7.452;2023-03-23T04:15:55;3.65;;;1.35;;
30553;SDS011;17335;50.720;7.452;2023-03-23T04:18:21;3.17;;;1.48;;
30553;SDS011;17335;50.720;7.452;2023-03-23T04:20:48;2.85;;;1.60;;
30553;SDS011;17335;50.720;7.452;2023-03-23T04:23:14;2.95;;;1.50;;
30553;SDS011;17335;50.720;7.452;2023-03-23T04:25:48;2.78;;;1.42;;
30553;SDS011;17335;50.720;7.452;2023-03-23T04:28:18;3.40;;;1.50;;
30553;SDS011;17335;50.720;7.452;2023-03-23T04:30:44;2.80;;;1.40;;
30553;SDS011;17335;50.720;7.452;2023-03-23T04:33:14;2.60;;;1.40;;
30553;SDS011;17335;50.720;7.452;2023-03-23T04:35:40;3.72;;;1.40;;
30553;SDS011;17335;50.720;7.452;2023-03-23T04:38:07;2.78;;;1.40;;
30553;SDS011;17335;50.720;7.452;2023-03-23T04:40:37;2.55;;;1.48;;
30553;SDS011;17335;50.720;7.452;2023-03-23T04:43:05;3.22;;;1.42;;
30553;SDS011;17335;50.720;7.452;2023-03-23T04:45:32;2.60;;;1.25;;
30553;SDS011;17335;50.720;7.452;2023-03-23T04:47:58;3.65;;;1.50;;
30553;SDS011;17335;50.720;7.452;2023-03-23T04:50:29;4.22;;;1.17;;
30553;SDS011;17335;50.720;7.452;2023-03-23T04:52:57;3.58;;;1.27;;
30553;SDS011;17335;50.720;7.452;2023-03-23T04:55:31;5.97;;;1.70;;
30553;SDS011;17335;50.720;7.452;2023-03-23T04:58:04;2.00;;;1.30;;
30553;SDS011;17335;50.720;7.452;2023-03-23T05:00:34;3.28;;;1.48;;
30553;SDS011;17335;50.720;7.452;2023-03-23T05:03:01;2.63;;;1.10;;
30553;SDS011;17335;50.720;7.452;2023-03-23T05:05:27;4.60;;;1.70;;
30553;SDS011;17335;50.720;7.452;2023-03-23T05:07:55;2.72;;;1.40;;
30553;SDS011;17335;50.720;7.452;2023-03-23T05:10:21;3.50;;;1.60;;
30553;SDS011;17335;50.720;7.452;2023-03-23T05:12:46;2.55;;;1.50;;
30553;SDS011;17335;50.720;7.452;2023-03-23T05:15:14;3.33;;;1.58;;
30553;SDS011;17335;50.720;7.452;2023-03-23T05:17:41;4.72;;;1.50;;
30553;SDS011;17335;50.720;7.452;2023-03-23T05:20:12;3.25;;;1.45;;
30553;SDS011;17335;50.720;7.452;2023-03-23T05:22:40;3.17;;;1.75;;
30553;SDS011;17335;50.720;7.452;2023-03-23T05:25:07;4.97;;;1.65;;
30553;SDS011;17335;50.720;7.452;2023-03-23T05:27:35;3.95;;;1.60;;
30553;SDS011;17335;50.720;7.452;2023-03-23T05:30:01;4.63;;;1.70;;
30553;SDS011;17335;50.720;7.452;2023-03-23T05:32:28;3.40;;;1.75;;
30553;SDS011;17335;50.720;7.452;2023-03-23T05:34:56;4.18;;;1.70;;
30553;SDS011;17335;50.720;7.452;2023-03-23T05:37:23;3.03;;;1.77;;
30553;SDS011;17335;50.720;7.452;2023-03-23T05:39:50;3.28;;;1.50;;
30553;SDS011;17335;50.720;7.452;2023-03-23T05:42:19;6.72;;;1.73;;
30553;SDS011;17335;50.720;7.452;2023-03-23T05:44:46;4.03;;;2.05;;
30553;SDS011;17335;50.720;7.452;2023-03-23T05:47:12;3.72;;;1.67;;
30553;SDS011;17335;50.720;7.452;2023-03-23T05:49:38;4.28;;;1.50;;
30553;SDS011;17335;50.720;7.452;2023-03-23T05:52:03;3.22;;;1.60;;
30553;SDS011;17335;50.720;7.452;2023-03-23T05:54:29;3.63;;;1.70;;
30553;SDS011;17335;50.720;7.452;2023-03-23T05:56:55;3.53;;;1.77;;
30553;SDS011;17335;50.720;7.452;2023-03-23T05:59:20;3.28;;;1.92;;
30553;SDS011;17335;50.720;7.452;2023-03-23T06:01:46;3.33;;;1.83;;
30553;SDS011;17335;50.720;7.452;2023-03-23T06:04:11;4.75;;;1.95;;
30553;SDS011;17335;50.720;7.452;2023-03-23T06:06:38;3.78;;;1.73;;
30553;SDS011;17335;50.720;7.452;2023-03-23T06:09:06;3.70;;;1.75;;
30553;SDS011;17335;50.720;7.452;2023-03-23T06:11:32;4.55;;;1.70;;
30553;SDS011;17335;50.720;7.452;2023-03-23T06:13:58;4.15;;;1.75;;
30553;SDS011;17335;50.720;7.452;2023-03-23T06:16:23;5.80;;;1.80;;
30553;SDS011;17335;50.720;7.452;2023-03-23T06:18:49;5.53;;;1.75;;
30553;SDS011;17335;50.720;7.452;2023-03-23T06:21:14;3.00;;;1.70;;
30553;SDS011;17335;50.720;7.452;2023-03-23T06:23:44;4.65;;;1.70;;
30553;SDS011;17335;50.720;7.452;2023-03-23T06:26:10;3.63;;;1.60;;
30553;SDS011;17335;50.720;7.452;2023-03-23T06:28:39;4.32;;;1.70;;
30553;SDS011;17335;50.720;7.452;2023-03-23T06:31:06;3.63;;;1.73;;
30553;SDS011;17335;50.720;7.452;2023-03-23T06:33:36;4.70;;;1.67;;
30553;SDS011;17335;50.720;7.452;2023-03-23T06:36:03;3.38;;;1.50;;
30553;SDS011;17335;50.720;7.452;2023-03-23T06:38:29;2.88;;;1.55;;
30553;SDS011;17335;50.720;7.452;2023-03-23T06:40:56;4.85;;;1.45;;
30553;SDS011;17335;50.720;7.452;2023-03-23T06:43:22;3.38;;;1.42;;
30553;SDS011;17335;50.720;7.452;2023-03-23T06:45:49;2.22;;;1.48;;
30553;SDS011;17335;50.720;7.452;2023-03-23T06:48:15;2.08;;;1.30;;
30553;SDS011;17335;50.720;7.452;2023-03-23T06:50:42;4.53;;;1.55;;
30553;SDS011;17335;50.720;7.452;2023-03-23T06:53:11;3.50;;;1.40;;
30553;SDS011;17335;50.720;7.452;2023-03-23T06:55:38;3.42;;;1.40;;
30553;SDS011;17335;50.720;7.452;2023-03-23T06:58:04;3.90;;;1.20;;
30553;SDS011;17335;50.720;7.452;2023-03-23T07:00:31;1.90;;;1.20;;
30553;SDS011;17335;50.720;7.452;2023-03-23T07:02:57;2.95;;;1.52;;
30553;SDS011;17335;50.720;7.452;2023-03-23T07:05:23;2.38;;;1.38;;
30553;SDS011;17335;50.720;7.452;2023-03-23T07:07:49;3.95;;;1.48;;
30553;SDS011;17335;50.720;7.452;2023-03-23T07:10:15;4.53;;;1.55;;
30553;SDS011;17335;50.720;7.452;2023-03-23T07:12:40;2.92;;;1.52;;
30553;SDS011;17335;50.720;7.452;2023-03-23T07:15:08;2.60;;;1.33;;
30553;SDS011;17335;50.720;7.452;2023-03-23T07:17:38;3.55;;;1.60;;
30553;SDS011;17335;50.720;7.452;2023-03-23T07:20:05;2.08;;;1.00;;
30553;SDS011;17335;50.720;7.452;2023-03-23T07:22:31;3.90;;;1.48;;
30553;SDS011;17335;50.720;7.452;2023-03-23T07:24:57;5.00;;;1.35;;
30553;SDS011;17335;50.720;7.452;2023-03-23T07:27:23;2.47;;;1.30;;
30553;SDS011;17335;50.720;7.452;2023-03-23T07:29:49;4.38;;;1.33;;
30553;SDS011;17335;50.720;7.452;2023-03-23T07:32:15;2.75;;;1.10;;
30553;SDS011;17335;50.720;7.452;2023-03-23T07:34:40;4.00;;;1.70;;
30553;SDS011;17335;50.720;7.452;2023-03-23T07:37:06;6.82;;;1.55;;
30553;SDS011;17335;50.720;7.452;2023-03-23T07:39:32;3.85;;;1.30;;
30553;SDS011;17335;50.720;7.452;2023-03-23T07:41:59;2.33;;;1.33;;
30553;SDS011;17335;50.720;7.452;2023-03-23T07:44:25;2.35;;;1.30;;
30553;SDS011;17335;50.720;7.452;2023-03-23T07:46:51;5.55;;;1.30;;
30553;SDS011;17335;50.720;7.452;2023-03-23T07:49:17;4.68;;;1.27;;
30553;SDS011;17335;50.720;7.452;2023-03-23T07:51:43;6.10;;;1.27;;
30553;SDS011;17335;50.720;7.452;2023-03-23T07:54:09;4.57;;;1.08;;
30553;SDS011;17335;50.720;7.452;2023-03-23T07:56:35;3.63;;;1.00;;
30553;SDS011;17335;50.720;7.452;2023-03-23T07:59:02;4.25;;;1.25;;
30553;SDS011;17335;50.720;7.452;2023-03-23T08:01:30;3.80;;;1.30;;
30553;SDS011;17335;50.720;7.452;2023-03-23T08:03:56;4.93;;;1.23;;
30553;SDS011;17335;50.720;7.452;2023-03-23T08:06:23;3.13;;;1.20;;
30553;SDS011;17335;50.720;7.452;2023-03-23T08:08:49;8.80;;;2.00;;
30553;SDS011;17335;50.720;7.452;2023-03-23T08:11:17;3.38;;;1.73;;
30553;SDS011;17335;50.720;7.452;2023-03-23T08:13:45;3.22;;;1.30;;
30553;SDS011;17335;50.720;7.452;2023-03-23T08:16:11;4.07;;;1.33;;
30553;SDS011;17335;50.720;7.452;2023-03-23T08:18:38;2.58;;;1.10;;
30553;SDS011;17335;50.720;7.452;2023-03-23T08:21:04;2.40;;;1.02;;
30553;SDS011;17335;50.720;7.452;2023-03-23T08:23:34;3.00;;;1.30;;
30553;SDS011;17335;50.720;7.452;2023-03-23T08:26:02;3.35;;;1.30;;
30553;SDS011;17335;50.720;7.452;2023-03-23T08:28:33;3.45;;;1.17;;
30553;SDS011;17335;50.720;7.452;2023-03-23T08:31:00;2.70;;;1.00;;
30553;SDS011;17335;50.720;7.452;2023-03-23T08:33:32;2.92;;;0.93;;
30553;SDS011;17335;50.720;7.452;2023-03-23T08:35:58;5.68;;;1.55;;
30553;SDS011;17335;50.720;7.452;2023-03-23T08:38:25;2.17;;;1.05;;
30553;SDS011;17335;50.720;7.452;2023-03-23T08:40:52;3.10;;;1.20;;
30553;SDS011;17335;50.720;7.452;2023-03-23T08:43:22;3.75;;;1.17;;
30553;SDS011;17335;50.720;7.452;2023-03-23T08:45:49;2.55;;;1.10;;
30553;SDS011;17335;50.720;7.452;2023-03-23T08:48:15;4.25;;;1.13;;
30553;SDS011;17335;50.720;7.452;2023-03-23T08:50:41;1.85;;;1.00;;
30553;SDS011;17335;50.720;7.452;2023-03-23T08:53:07;2.47;;;1.35;;
30553;SDS011;17335;50.720;7.452;2023-03-23T08:55:32;2.70;;;1.20;;
30553;SDS011;17335;50.720;7.452;2023-03-23T08:57:58;2.45;;;1.00;;
30553;SDS011;17335;50.720;7.452;2023-03-23T09:00:23;4.93;;;1.73;;
30553;SDS011;17335;50.720;7.452;2023-03-23T09:02:52;2.92;;;1.17;;
30553;SDS011;17335;50.720;7.452;2023-03-23T09:05:19;3.83;;;1.00;;
30553;SDS011;17335;50.720;7.452;2023-03-23T09:07:48;3.63;;;1.00;;
30553;SDS011;17335;50.720;7.452;2023-03-23T09:10:16;2.85;;;1.65;;
30553;SDS011;17335;50.720;7.452;2023-03-23T09:12:42;3.33;;;1.42;;
30553;SDS011;17335;50.720;7.452;2023-03-23T09:15:09;5.28;;;1.33;;
30553;SDS011;17335;50.720;7.452;2023-03-23T09:17:42;2.50;;;1.10;;
30553;SDS011;17335;50.720;7.452;2023-03-23T09:20:10;3.70;;;1.35;;
30553;SDS011;17335;50.720;7.452;2023-03-23T09:22:40;4.60;;;1.20;;
30553;SDS011;17335;50.720;7.452;2023-03-23T09:25:11;2.35;;;1.10;;
30553;SDS011;17335;50.720;7.452;2023-03-23T09:27:39;2.42;;;1.20;;
30553;SDS011;17335;50.720;7.452;2023-03-23T09:30:06;1.65;;;1.08;;
30553;SDS011;17335;50.720;7.452;2023-03-23T09:32:36;4.53;;;1.70;;
30553;SDS011;17335;50.720;7.452;2023-03-23T09:35:02;1.55;;;1.00;;
30553;SDS011;17335;50.720;7.452;2023-03-23T09:37:31;2.53;;;1.00;;
30553;SDS011;17335;50.720;7.452;2023-03-23T09:39:58;3.83;;;1.23;;
30553;SDS011;17335;50.720;7.452;2023-03-23T09:50:41;3.20;;;0.95;;
30553;SDS011;17335;50.720;7.452;2023-03-23T09:53:12;3.42;;;1.30;;
30553;SDS011;17335;50.720;7.452;2023-03-23T09:55:43;4.03;;;1.25;;
30553;SDS011;17335;50.720;7.452;2023-03-23T10:01:16;3.88;;;0.90;;
30553;SDS011;17335;50.720;7.452;2023-03-23T10:03:43;2.22;;;0.88;;
30553;SDS011;17335;50.720;7.452;2023-03-23T10:06:11;2.53;;;0.90;;
30553;SDS011;17335;50.720;7.452;2023-03-23T10:08:50;3.65;;;1.20;;
30553;SDS011;17335;50.720;7.452;2023-03-23T10:16:54;4.90;;;0.93;;
30553;SDS011;17335;50.720;7.452;2023-03-23T10:22:08;1.27;;;0.80;;
30553;SDS011;17335;50.720;7.452;2023-03-23T10:24:36;2.90;;;0.90;;
30553;SDS011;17335;50.720;7.452;2023-03-23T10:27:26;1.40;;;0.70;;
30553;SDS011;17335;50.720;7.452;2023-03-23T10:36:05;2.80;;;1.00;;
30553;SDS011;17335;50.720;7.452;2023-03-23T10:41:11;2.95;;;0.70;;
30553;SDS011;17335;50.720;7.452;2023-03-23T10:46:22;3.45;;;1.00;;
30553;SDS011;17335;50.720;7.452;2023-03-23T10:48:50;3.53;;;1.00;;
30553;SDS011;17335;50.720;7.452;2023-03-23T10:51:18;1.50;;;0.70;;
30553;SDS011;17335;50.720;7.452;2023-03-23T10:53:51;1.65;;;0.80;;
30553;SDS011;17335;50.720;7.452;2023-03-23T10:56:27;3.40;;;0.82;;
30553;SDS011;17335;50.720;7.452;2023-03-23T10:58:59;1.60;;;0.60;;
30553;SDS011;17335;50.720;7.452;2023-03-23T11:01:31;0.75;;;0.60;;
30553;SDS011;17335;50.720;7.452;2023-03-23T11:04:00;1.05;;;0.50;;
30553;SDS011;17335;50.720;7.452;2023-03-23T11:06:28;1.20;;;0.65;;
30553;SDS011;17335;50.720;7.452;2023-03-23T11:09:08;3.13;;;0.73;;
30553;SDS011;17335;50.720;7.452;2023-03-23T11:11:38;1.08;;;0.60;;
30553;SDS011;17335;50.720;7.452;2023-03-23T11:14:18;0.68;;;0.50;;
30553;SDS011;17335;50.720;7.452;2023-03-23T11:16:51;1.25;;;0.65;;
30553;SDS011;17335;50.720;7.452;2023-03-23T11:19:23;5.28;;;1.02;;
30553;SDS011;17335;50.720;7.452;2023-03-23T11:21:53;1.98;;;0.68;;
30553;SDS011;17335;50.720;7.452;2023-03-23T11:24:21;1.25;;;0.68;;
30553;SDS011;17335;50.720;7.452;2023-03-23T11:26:48;1.63;;;0.60;;
30553;SDS011;17335;50.720;7.452;2023-03-23T11:29:17;1.17;;;0.60;;
30553;SDS011;17335;50.720;7.452;2023-03-23T11:31:46;1.52;;;0.70;;
30553;SDS011;17335;50.720;7.452;2023-03-23T11:34:16;1.52;;;0.70;;
30553;SDS011;17335;50.720;7.452;2023-03-23T11:36:43;2.05;;;0.80;;
30553;SDS011;17335;50.720;7.452;2023-03-23T11:39:28;2.20;;;0.80;;
30553;SDS011;17335;50.720;7.452;2023-03-23T11:41:57;0.98;;;0.57;;
30553;SDS011;17335;50.720;7.452;2023-03-23T11:44:26;2.75;;;0.73;;
30553;SDS011;17335;50.720;7.452;2023-03-23T11:52:09;2.28;;;0.75;;
30553;SDS011;17335;50.720;7.452;2023-03-23T11:54:41;2.08;;;0.85;;
30553;SDS011;17335;50.720;7.452;2023-03-23T11:57:13;1.20;;;0.77;;
30553;SDS011;17335;50.720;7.452;2023-03-23T11:59:40;2.45;;;0.70;;
30553;SDS011;17335;50.720;7.452;2023-03-23T12:02:16;3.65;;;0.77;;
30553;SDS011;17335;50.720;7.452;2023-03-23T12:07:52;2.10;;;0.85;;
30553;SDS011;17335;50.720;7.452;2023-03-23T12:16:41;2.00;;;0.70;;
30553;SDS011;17335;50.720;7.452;2023-03-23T12:27:11;1.83;;;0.70;;
30553;SDS011;17335;50.720;7.452;2023-03-23T12:29:53;1.50;;;0.80;;
30553;SDS011;17335;50.720;7.452;2023-03-23T12:32:38;4.22;;;0.80;;
30553;SDS011;17335;50.720;7.452;2023-03-23T12:48:52;2.03;;;0.80;;
30553;SDS011;17335;50.720;7.452;2023-03-23T12:56:48;3.60;;;1.05;;
30553;SDS011;17335;50.720;7.452;2023-03-23T13:04:51;3.45;;;1.35;;
30553;SDS011;17335;50.720;7.452;2023-03-23T13:07:26;1.60;;;1.08;;
30553;SDS011;17335;50.720;7.452;2023-03-23T13:09:58;3.47;;;0.95;;
30553;SDS011;17335;50.720;7.452;2023-03-23T13:17:41;3.80;;;1.10;;
30553;SDS011;17335;50.720;7.452;2023-03-23T13:23:02;2.47;;;1.10;;
30553;SDS011;17335;50.720;7.452;2023-03-23T13:26:21;1.58;;;0.90;;
30553;SDS011;17335;50.720;7.452;2023-03-23T13:28:31;3.92;;;1.38;;
30553;SDS011;17335;50.720;7.452;2023-03-23T13:33:52;2.60;;;0.85;;
30553;SDS011;17335;50.720;7.452;2023-03-23T13:36:30;2.47;;;0.80;;
30553;SDS011;17335;50.720;7.452;2023-03-23T13:39:03;2.63;;;0.88;;
30553;SDS011;17335;50.720;7.452;2023-03-23T13:41:33;2.72;;;1.10;;
30553;SDS011;17335;50.720;7.452;2023-03-23T13:44:15;2.42;;;0.80;;
30553;SDS011;17335;50.720;7.452;2023-03-23T13:46:52;2.92;;;1.10;;
30553;SDS011;17335;50.720;7.452;2023-03-23T13:49:20;2.53;;;1.05;;
30553;SDS011;17335;50.720;7.452;2023-03-23T13:52:36;2.25;;;0.98;;
30553;SDS011;17335;50.720;7.452;2023-03-23T13:54:43;2.03;;;1.13;;
30553;SDS011;17335;50.720;7.452;2023-03-23T13:57:25;5.82;;;0.93;;
30553;SDS011;17335;50.720;7.452;2023-03-23T14:00:24;5.00;;;1.25;;
30553;SDS011;17335;50.720;7.452;2023-03-23T14:05:41;3.10;;;1.10;;
30553;SDS011;17335;50.720;7.452;2023-03-23T14:16:40;7.57;;;1.15;;
30553;SDS011;17335;50.720;7.452;2023-03-23T14:21:57;5.65;;;1.17;;
30553;SDS011;17335;50.720;7.452;2023-03-23T14:24:25;2.90;;;0.90;;
30553;SDS011;17335;50.720;7.452;2023-03-23T14:26:52;6.82;;;1.20;;
30553;SDS011;17335;50.720;7.452;2023-03-23T14:29:19;2.15;;;1.10;;
30553;SDS011;17335;50.720;7.452;2023-03-23T14:31:52;2.15;;;0.90;;
30553;SDS011;17335;50.720;7.452;2023-03-23T14:34:24;5.28;;;1.10;;
30553;SDS011;17335;50.720;7.452;2023-03-23T14:36:52;4.55;;;1.30;;
30553;SDS011;17335;50.720;7.452;2023-03-23T14:39:29;7.63;;;1.48;;
30553;SDS011;17335;50.720;7.452;2023-03-23T14:42:01;2.72;;;1.20;;
30553;SDS011;17335;50.720;7.452;2023-03-23T14:44:31;3.85;;;1.00;;
30553;SDS011;17335;50.720;7.452;2023-03-23T14:46:58;2.75;;;1.10;;
30553;SDS011;17335;50.720;7.452;2023-03-23T14:49:29;3.38;;;1.30;;
30553;SDS011;17335;50.720;7.452;2023-03-23T14:52:02;3.75;;;1.20;;
30553;SDS011;17335;50.720;7.452;2023-03-23T14:57:02;4.90;;;1.15;;
30553;SDS011;17335;50.720;7.452;2023-03-23T14:59:34;2.65;;;1.00;;
30553;SDS011;17335;50.720;7.452;2023-03-23T15:01:59;2.28;;;0.90;;
30553;SDS011;17335;50.720;7.452;2023-03-23T15:04:26;3.80;;;1.10;;
30553;SDS011;17335;50.720;7.452;2023-03-23T15:06:54;6.43;;;1.42;;
30553;SDS011;17335;50.720;7.452;2023-03-23T15:09:27;2.22;;;0.90;;
30553;SDS011;17335;50.720;7.452;2023-03-23T15:11:58;4.30;;;1.15;;
30553;SDS011;17335;50.720;7.452;2023-03-23T15:14:26;1.60;;;0.90;;
30553;SDS011;17335;50.720;7.452;2023-03-23T15:16:55;4.15;;;1.08;;
30553;SDS011;17335;50.720;7.452;2023-03-23T15:19:33;4.70;;;1.23;;
30553;SDS011;17335;50.720;7.452;2023-03-23T15:22:07;4.20;;;1.55;;
30553;SDS011;17335;50.720;7.452;2023-03-23T15:24:46;1.45;;;0.95;;
30553;SDS011;17335;50.720;7.452;2023-03-23T15:27:16;3.35;;;0.80;;
30553;SDS011;17335;50.720;7.452;2023-03-23T15:29:52;4.35;;;1.10;;
30553;SDS011;17335;50.720;7.452;2023-03-23T15:32:25;10.75;;;1.52;;
30553;SDS011;17335;50.720;7.452;2023-03-23T15:34:53;3.35;;;1.00;;
30553;SDS011;17335;50.720;7.452;2023-03-23T15:37:29;2.75;;;1.02;;
30553;SDS011;17335;50.720;7.452;2023-03-23T15:39:56;1.63;;;0.90;;
30553;SDS011;17335;50.720;7.452;2023-03-23T15:45:02;4.55;;;1.10;;
30553;SDS011;17335;50.720;7.452;2023-03-23T15:48:09;2.75;;;1.10;;
30553;SDS011;17335;50.720;7.452;2023-03-23T15:52:56;2.53;;;1.10;;
30553;SDS011;17335;50.720;7.452;2023-03-23T15:55:26;2.08;;;0.90;;
30553;SDS011;17335;50.720;7.452;2023-03-23T15:57:52;3.58;;;1.73;;
30553;SDS011;17335;50.720;7.452;2023-03-23T16:00:21;4.25;;;1.20;;
30553;SDS011;17335;50.720;7.452;2023-03-23T16:02:56;2.25;;;0.90;;
30553;SDS011;17335;50.720;7.452;2023-03-23T16:05:28;3.97;;;1.00;;
30553;SDS011;17335;50.720;7.452;2023-03-23T16:07:54;2.40;;;1.17;;
30553;SDS011;17335;50.720;7.452;2023-03-23T16:10:22;3.13;;;1.40;;
30553;SDS011;17335;50.720;7.452;2023-03-23T16:12:49;4.28;;;1.40;;
30553;SDS011;17335;50.720;7.452;2023-03-23T16:15:17;3.80;;;1.30;;
30553;SDS011;17335;50.720;7.452;2023-03-23T16:17:44;4.88;;;1.40;;
30553;SDS011;17335;50.720;7.452;2023-03-23T16:20:17;3.83;;;1.23;;
30553;SDS011;17335;50.720;7.452;2023-03-23T16:22:45;3.75;;;1.52;;
30553;SDS011;17335;50.720;7.452;2023-03-23T16:25:13;2.35;;;1.10;;
30553;SDS011;17335;50.720;7.452;2023-03-23T16:27:40;2.40;;;1.27;;
30553;SDS011;17335;50.720;7.452;2023-03-23T16:30:12;5.25;;;1.60;;
30553;SDS011;17335;50.720;7.452;2023-03-23T16:32:41;5.03;;;1.60;;
30553;SDS011;17335;50.720;7.452;2023-03-23T16:35:08;3.00;;;1.10;;
30553;SDS011;17335;50.720;7.452;2023-03-23T16:37:36;4.95;;;1.30;;
30553;SDS011;17335;50.720;7.452;2023-03-23T16:40:03;5.85;;;1.55;;
30553;SDS011;17335;50.720;7.452;2023-03-23T16:42:30;5.82;;;1.52;;
30553;SDS011;17335;50.720;7.452;2023-03-23T16:44:57;2.33;;;1.30;;
30553;SDS011;17335;50.720;7.452;2023-03-23T16:47:24;4.43;;;1.42;;
30553;SDS011;17335;50.720;7.452;2023-03-23T16:49:51;3.60;;;1.27;;
30553;SDS011;17335;50.720;7.452;2023-03-23T16:52:18;4.68;;;1.20;;
30553;SDS011;17335;50.720;7.452;2023-03-23T16:54:45;5.82;;;1.40;;
30553;SDS011;17335;50.720;7.452;2023-03-23T16:57:11;4.95;;;1.58;;
30553;SDS011;17335;50.720;7.452;2023-03-23T16:59:38;5.47;;;1.80;;
30553;SDS011;17335;50.720;7.452;2023-03-23T17:02:05;4.93;;;1.35;;